Time;durP1;ratioP1;P1;durP2;ratioP2;P2;SDS_P1;SDS_P2;PMS_P1;PMS_P2;Temp;Humidity;BMP_temperature;BMP_pressure;BME280_temperature;BME280_humidity;BME280_pressure;Samples;Min_cycle;Max_cycle;Signal;HPM_P1;HPM_P2
2022/09/04 00:00:27;;;;;;;;;;;27.20;94.20;;;;;;5105417;28;19918;-54
2022/09/04 00:03:00;;;;;;;;;;;27.20;94.10;;;;;;5105258;28;19908;-55
2022/09/04 00:05:29;;;;;;;;;;;27.20;94.20;;;;;;5105564;28;19912;-54
2022/09/04 00:08:21;;;;;;;;;;;27.20;94.20;;;;;;5105129;28;19930;-53
2022/09/04 00:11:15;;;;;;;;;;;27.10;94.20;;;;;;5105609;28;19918;-54
2022/09/04 00:14:06;;;;;;;;;;;27.20;94.20;;;;;;5073914;28;19915;-54
2022/09/04 00:16:53;;;;;;;;;;;27.10;94.20;;;;;;5105055;28;19927;-55
2022/09/04 00:19:37;;;;;;;;;;;27.10;94.20;;;;;;5104725;28;19947;-54
2022/09/04 00:22:15;;;;;;;;;;;27.10;94.20;;;;;;5105006;28;19915;-54
2022/09/04 00:24:44;;;;;;;;;;;27.10;94.10;;;;;;5104919;28;19912;-54
2022/09/04 00:27:20;;;;;;;;;;;27.10;94.10;;;;;;5104795;28;20226;-52
2022/09/04 00:29:47;;;;;;;;;;;27.10;94.20;;;;;;5104827;28;19918;-52
2022/09/04 00:32:17;;;;;;;;;;;27.10;94.30;;;;;;5104795;28;19982;-54
2022/09/04 00:34:47;;;;;;;;;;;27.10;94.10;;;;;;5104878;28;19939;-53
2022/09/04 00:37:15;;;;;;;;;;;27.10;94.10;;;;;;5104570;28;20237;-59
2022/09/04 00:39:52;;;;;;;;;;;27.10;94.00;;;;;;5104384;28;19912;-55
2022/09/04 00:42:37;;;;;;;;;;;27.10;94.00;;;;;;5104681;28;20228;-55
2022/09/04 00:45:03;;;;;;;;;;;27.00;94.00;;;;;;5104359;28;19995;-51
2022/09/04 00:47:50;;;;;;;;;;;27.00;94.10;;;;;;5104576;28;20139;-55
2022/09/04 00:50:22;;;;;;;;;;;27.00;94.10;;;;;;5104873;28;19958;-52
2022/09/04 00:52:54;;;;;;;;;;;27.00;94.10;;;;;;5104381;28;19920;-54
2022/09/04 00:55:23;;;;;;;;;;;27.00;94.10;;;;;;5104774;28;19924;-50
2022/09/04 00:58:12;;;;;;;;;;;27.00;94.10;;;;;;5104429;28;19974;-55
2022/09/04 01:00:40;;;;;;;;;;;27.00;94.00;;;;;;5094023;28;19991;-56
2022/09/04 01:03:06;;;;;;;;;;;27.00;94.10;;;;;;5104452;28;19908;-54
2022/09/04 01:05:35;;;;;;;;;;;27.00;94.20;;;;;;5104261;28;19919;-52
2022/09/04 01:08:13;;;;;;;;;;;26.90;94.10;;;;;;5104263;28;19904;-54
2022/09/04 01:10:44;;;;;;;;;;;26.90;94.10;;;;;;5104673;28;19988;-55
2022/09/04 01:13:32;;;;;;;;;;;26.90;94.40;;;;;;5104086;28;19916;-55
2022/09/04 01:16:30;;;;;;;;;;;27.00;94.20;;;;;;5063752;28;19956;-60
2022/09/04 01:19:01;;;;;;;;;;;26.90;94.20;;;;;;5059645;28;20022;-54
2022/09/04 01:21:49;;;;;;;;;;;26.90;94.30;;;;;;5103909;28;19908;-51
2022/09/04 01:24:38;;;;;;;;;;;26.90;94.30;;;;;;5104407;28;19958;-54
2022/09/04 01:27:12;;;;;;;;;;;26.90;94.30;;;;;;5093507;28;20200;-55
2022/09/04 01:29:39;;;;;;;;;;;26.90;94.30;;;;;;5104271;28;19913;-55
2022/09/04 01:32:18;;;;;;;;;;;26.90;94.30;;;;;;5103835;28;19912;-56
2022/09/04 01:35:01;;;;;;;;;;;26.90;94.30;;;;;;5104251;28;19912;-53
2022/09/04 01:37:46;;;;;;;;;;;26.90;94.30;;;;;;5104023;28;19916;-52
2022/09/04 01:40:21;;;;;;;;;;;26.90;94.30;;;;;;5104178;28;19916;-52
2022/09/04 01:43:10;;;;;;;;;;;26.90;94.30;;;;;;5104177;28;19965;-54
2022/09/04 01:45:42;;;;;;;;;;;26.90;94.40;;;;;;5104183;28;19989;-53
2022/09/04 01:48:12;;;;;;;;;;;26.90;94.30;;;;;;5103965;28;19914;-54
2022/09/04 01:50:41;;;;;;;;;;;26.90;94.40;;;;;;5104279;28;20135;-54
2022/09/04 01:53:10;;;;;;;;;;;26.80;94.40;;;;;;5103737;28;20256;-53
2022/09/04 01:55:51;;;;;;;;;;;26.90;94.40;;;;;;5104286;28;19912;-53
2022/09/04 01:58:26;;;;;;;;;;;26.80;94.40;;;;;;5106138;28;19979;-57
2022/09/04 02:01:04;;;;;;;;;;;26.90;94.40;;;;;;5107765;28;19958;-58
2022/09/04 02:03:49;;;;;;;;;;;26.80;94.60;;;;;;5107481;28;19908;-52
2022/09/04 02:06:26;;;;;;;;;;;26.80;94.40;;;;;;5107615;28;19912;-54
2022/09/04 02:09:18;;;;;;;;;;;26.80;94.60;;;;;;5107283;28;19950;-59
2022/09/04 02:11:50;;;;;;;;;;;26.80;94.70;;;;;;5076330;28;19912;-53
2022/09/04 02:14:34;;;;;;;;;;;26.80;94.70;;;;;;5107272;28;20287;-57
2022/09/04 02:17:01;;;;;;;;;;;26.80;94.70;;;;;;5107206;28;19923;-57
2022/09/04 02:19:28;;;;;;;;;;;26.80;94.80;;;;;;5107131;28;19943;-54
2022/09/04 02:21:54;;;;;;;;;;;26.80;94.80;;;;;;5107421;28;19908;-55
2022/09/04 02:24:40;;;;;;;;;;;26.80;94.70;;;;;;5107411;28;19912;-55
2022/09/04 02:27:19;;;;;;;;;;;26.80;94.70;;;;;;5107206;28;19908;-55
2022/09/04 02:30:01;;;;;;;;;;;26.80;94.80;;;;;;5107013;28;20127;-53
2022/09/04 02:32:27;;;;;;;;;;;26.70;94.70;;;;;;5107008;28;20204;-54
2022/09/04 02:35:07;;;;;;;;;;;26.70;94.70;;;;;;5107187;28;19983;-55
2022/09/04 02:37:33;;;;;;;;;;;26.70;94.70;;;;;;5106915;28;19916;-58
2022/09/04 02:40:17;;;;;;;;;;;26.70;94.70;;;;;;5107193;28;19912;-54
2022/09/04 02:42:51;;;;;;;;;;;26.70;94.90;;;;;;5106781;28;19908;-55
2022/09/04 02:45:32;;;;;;;;;;;26.70;94.60;;;;;;5107045;28;19912;-53
2022/09/04 02:48:12;;;;;;;;;;;26.70;94.60;;;;;;5106722;28;20220;-54
2022/09/04 02:50:46;;;;;;;;;;;26.70;94.60;;;;;;5106624;28;20193;-53
2022/09/04 02:53:25;;;;;;;;;;;26.70;94.60;;;;;;5106886;28;19957;-54
2022/09/04 02:55:51;;;;;;;;;;;26.70;94.60;;;;;;5106964;28;19912;-54
2022/09/04 02:58:17;;;;;;;;;;;26.70;94.70;;;;;;5106370;28;19912;-53
2022/09/04 03:01:03;;;;;;;;;;;26.70;94.70;;;;;;5106908;28;19934;-54
2022/09/04 03:03:48;;;;;;;;;;;26.70;94.70;;;;;;5065356;28;19979;-56
2022/09/04 03:06:24;;;;;;;;;;;26.70;94.70;;;;;;5106650;28;19912;-51
2022/09/04 03:09:04;;;;;;;;;;;26.70;94.70;;;;;;5105814;28;19908;-60
2022/09/04 03:11:33;;;;;;;;;;;26.70;94.70;;;;;;5106383;28;19969;-53
2022/09/04 03:14:11;;;;;;;;;;;26.70;94.80;;;;;;5106124;28;19908;-53
2022/09/04 03:16:49;;;;;;;;;;;26.70;94.80;;;;;;5105983;28;19916;-54
2022/09/04 03:19:27;;;;;;;;;;;26.70;94.70;;;;;;5106105;28;20130;-54
2022/09/04 03:22:12;;;;;;;;;;;26.70;94.80;;;;;;5106094;28;19908;-53
2022/09/04 03:24:57;;;;;;;;;;;26.70;94.80;;;;;;5106188;28;19912;-54
2022/09/04 03:27:23;;;;;;;;;;;26.70;94.90;;;;;;5106143;28;19908;-56
2022/09/04 03:29:50;;;;;;;;;;;26.70;94.90;;;;;;5106456;28;19912;-53
2022/09/04 03:32:28;;;;;;;;;;;26.70;95.00;;;;;;5106088;28;19912;-54
2022/09/04 03:35:12;;;;;;;;;;;26.60;95.00;;;;;;5106000;28;19913;-55
2022/09/04 03:37:38;;;;;;;;;;;26.60;95.00;;;;;;5106097;28;20201;-52
2022/09/04 03:40:13;;;;;;;;;;;26.60;95.10;;;;;;5105859;28;19954;-53
2022/09/04 03:42:55;;;;;;;;;;;26.60;95.20;;;;;;5105668;28;19979;-54
2022/09/04 03:45:39;;;;;;;;;;;26.60;95.20;;;;;;5105974;28;19912;-51
2022/09/04 03:48:05;;;;;;;;;;;26.60;95.20;;;;;;5105715;28;19953;-55
2022/09/04 03:50:43;;;;;;;;;;;26.60;95.20;;;;;;5106054;28;20189;-52
2022/09/04 03:53:20;;;;;;;;;;;26.60;95.10;;;;;;5105253;28;19915;-54
2022/09/04 03:56:05;;;;;;;;;;;26.60;95.30;;;;;;5106028;28;19912;-56
2022/09/04 03:58:37;;;;;;;;;;;26.60;95.30;;;;;;5105433;28;19966;-53
2022/09/04 04:01:17;;;;;;;;;;;26.60;95.40;;;;;;5105907;28;19919;-53
2022/09/04 04:03:45;;;;;;;;;;;26.60;95.40;;;;;;5105201;28;19914;-57
2022/09/04 04:06:26;;;;;;;;;;;26.60;95.30;;;;;;5105872;28;19912;-52
2022/09/04 04:08:55;;;;;;;;;;;26.60;95.30;;;;;;5105096;28;20215;-52
2022/09/04 04:11:41;;;;;;;;;;;26.60;95.30;;;;;;5105098;28;19961;-55
2022/09/04 04:14:13;;;;;;;;;;;26.60;95.40;;;;;;5105028;28;19933;-54
2022/09/04 04:16:39;;;;;;;;;;;26.60;95.30;;;;;;5105041;28;19916;-52
2022/09/04 04:19:09;;;;;;;;;;;26.60;95.20;;;;;;5105353;28;19914;-55
2022/09/04 04:21:38;;;;;;;;;;;26.60;95.30;;;;;;5104383;28;19946;-55
2022/09/04 04:24:16;;;;;;;;;;;26.60;95.30;;;;;;5104916;28;20099;-53
2022/09/04 04:26:46;;;;;;;;;;;26.60;95.30;;;;;;5104806;28;20148;-53
2022/09/04 04:29:39;;;;;;;;;;;26.60;95.40;;;;;;5104982;28;19912;-54
2022/09/04 04:32:12;;;;;;;;;;;26.60;95.40;;;;;;5073903;28;19949;-57
2022/09/04 04:34:38;;;;;;;;;;;26.50;95.40;;;;;;5104902;28;19977;-52
2022/09/04 04:37:12;;;;;;;;;;;26.60;95.40;;;;;;5104720;28;19950;-50
2022/09/04 04:39:51;;;;;;;;;;;26.60;95.40;;;;;;5104794;28;20222;-53
2022/09/04 04:42:20;;;;;;;;;;;26.60;95.40;;;;;;5104754;28;20193;-52
2022/09/04 04:48:06;;;;;;;;;;;26.50;95.40;;;;;;5104721;28;19915;-53
2022/09/04 04:50:42;;;;;;;;;;;26.60;95.30;;;;;;5060148;28;20085;-53
2022/09/04 04:53:18;;;;;;;;;;;26.60;95.30;;;;;;5104350;28;19919;-52
2022/09/04 04:55:56;;;;;;;;;;;26.50;95.20;;;;;;5104974;28;19912;-54
2022/09/04 04:58:33;;;;;;;;;;;26.50;95.20;;;;;;5104324;28;19915;-57
2022/09/04 05:01:05;;;;;;;;;;;26.50;95.30;;;;;;5104783;28;19912;-52
2022/09/04 05:03:31;;;;;;;;;;;26.50;95.30;;;;;;5104184;28;19935;-50
2022/09/04 05:06:02;;;;;;;;;;;26.50;95.30;;;;;;5104803;28;19918;-55
2022/09/04 05:08:49;;;;;;;;;;;26.50;95.20;;;;;;5104300;28;19981;-53
2022/09/04 05:11:21;;;;;;;;;;;26.50;95.20;;;;;;5104613;28;19912;-52
2022/09/04 05:13:59;;;;;;;;;;;26.40;95.20;;;;;;5104214;28;19912;-52
2022/09/04 05:16:33;;;;;;;;;;;26.50;95.10;;;;;;5104339;28;19958;-51
2022/09/04 05:19:11;;;;;;;;;;;26.50;95.10;;;;;;5104432;28;20287;-52
2022/09/04 05:21:54;;;;;;;;;;;26.50;95.00;;;;;;5104377;28;19916;-52
2022/09/04 05:24:36;;;;;;;;;;;26.50;95.10;;;;;;5104332;28;19912;-53
2022/09/04 05:27:08;;;;;;;;;;;26.40;95.10;;;;;;5104463;28;19916;-53
2022/09/04 05:29:42;;;;;;;;;;;26.50;95.10;;;;;;5104360;28;19912;-52
2022/09/04 05:32:17;;;;;;;;;;;26.50;95.10;;;;;;5106595;28;19920;-54
2022/09/04 05:34:52;;;;;;;;;;;26.40;95.10;;;;;;5108409;28;20022;-55
2022/09/04 05:37:22;;;;;;;;;;;26.40;95.10;;;;;;5108158;28;19912;-57
2022/09/04 05:40:03;;;;;;;;;;;26.50;95.20;;;;;;5108297;28;19983;-54
2022/09/04 05:42:32;;;;;;;;;;;26.40;95.20;;;;;;5107935;28;19915;-55
2022/09/04 05:45:02;;;;;;;;;;;26.40;95.30;;;;;;5108297;28;19913;-56
2022/09/04 05:47:34;;;;;;;;;;;26.40;95.20;;;;;;5108108;28;20182;-54
2022/09/04 05:50:11;;;;;;;;;;;26.40;95.30;;;;;;5108184;28;20200;-53
2022/09/04 05:52:37;;;;;;;;;;;26.40;95.30;;;;;;5107774;28;19919;-56
2022/09/04 05:55:24;;;;;;;;;;;26.40;95.30;;;;;;5107942;28;20100;-53
2022/09/04 05:58:05;;;;;;;;;;;26.40;95.30;;;;;;5066717;28;19915;-55
2022/09/04 06:00:47;;;;;;;;;;;26.40;95.40;;;;;;5107942;28;19915;-52
2022/09/04 06:03:17;;;;;;;;;;;26.40;95.40;;;;;;5107744;28;20217;-55
2022/09/04 06:05:43;;;;;;;;;;;26.40;95.50;;;;;;5107425;28;20136;-52
2022/09/04 06:08:12;;;;;;;;;;;26.40;95.60;;;;;;5107577;28;19908;-52
2022/09/04 06:10:46;;;;;;;;;;;26.40;95.60;;;;;;5108014;28;20149;-54
2022/09/04 06:13:27;;;;;;;;;;;26.30;95.60;;;;;;5107508;28;20212;-54
2022/09/04 06:16:09;;;;;;;;;;;26.30;95.70;;;;;;5107478;28;19920;-54
2022/09/04 06:18:54;;;;;;;;;;;26.40;95.70;;;;;;5107505;28;20193;-54
2022/09/04 06:21:35;;;;;;;;;;;26.40;95.70;;;;;;5106449;28;20214;-54
2022/09/04 06:24:01;;;;;;;;;;;26.30;95.80;;;;;;5107249;28;20086;-53
2022/09/04 06:26:37;;;;;;;;;;;26.40;95.80;;;;;;5107155;28;19912;-56
2022/09/04 06:29:09;;;;;;;;;;;26.30;95.80;;;;;;5107135;28;19979;-54
2022/09/04 06:32:05;;;;;;;;;;;26.30;95.80;;;;;;5107043;28;19912;-54
2022/09/04 06:34:34;;;;;;;;;;;26.30;95.80;;;;;;5035033;28;19944;-53
2022/09/04 06:37:06;;;;;;;;;;;26.30;95.70;;;;;;5107020;28;19915;-57
2022/09/04 06:39:35;;;;;;;;;;;26.30;95.70;;;;;;5107074;28;19969;-53
2022/09/04 06:42:05;;;;;;;;;;;26.30;95.60;;;;;;5106878;28;20247;-57
2022/09/04 06:44:34;;;;;;;;;;;26.30;95.50;;;;;;5106104;28;19978;-54
2022/09/04 06:47:09;;;;;;;;;;;26.30;95.50;;;;;;5106885;28;20101;-52
2022/09/04 06:49:38;;;;;;;;;;;26.30;95.40;;;;;;5106812;28;19908;-52
2022/09/04 06:52:21;;;;;;;;;;;26.30;95.40;;;;;;5106622;28;19920;-53
2022/09/04 06:54:58;;;;;;;;;;;26.30;95.50;;;;;;5107218;28;19907;-55
2022/09/04 06:57:37;;;;;;;;;;;26.30;95.50;;;;;;5106865;28;20093;-54
2022/09/04 07:00:14;;;;;;;;;;;26.30;95.50;;;;;;5106733;28;19908;-54
2022/09/04 07:02:58;;;;;;;;;;;26.30;95.60;;;;;;5106812;28;19920;-55
2022/09/04 07:05:40;;;;;;;;;;;26.30;95.60;;;;;;5106861;28;19962;-54
2022/09/04 07:08:06;;;;;;;;;;;26.30;95.60;;;;;;5106398;28;19912;-55
2022/09/04 07:10:34;;;;;;;;;;;26.30;95.60;;;;;;5106940;28;19915;-58
2022/09/04 07:13:20;;;;;;;;;;;26.30;95.60;;;;;;5106227;28;19923;-56
2022/09/04 07:15:59;;;;;;;;;;;26.30;95.60;;;;;;5106473;28;19916;-55
2022/09/04 07:18:44;;;;;;;;;;;26.30;95.60;;;;;;5106844;28;19958;-54
2022/09/04 07:21:16;;;;;;;;;;;26.30;95.60;;;;;;5106601;28;19915;-58
2022/09/04 07:23:50;;;;;;;;;;;26.20;95.50;;;;;;5106141;28;19912;-51
2022/09/04 07:26:16;;;;;;;;;;;26.20;95.50;;;;;;5106167;28;19919;-52
2022/09/04 07:28:51;;;;;;;;;;;26.30;95.50;;;;;;5105989;28;19962;-52
2022/09/04 07:31:37;;;;;;;;;;;26.20;95.50;;;;;;5106009;28;19912;-51
2022/09/04 07:34:28;;;;;;;;;;;26.20;95.50;;;;;;5105287;28;19912;-52
2022/09/04 07:37:00;;;;;;;;;;;26.20;95.50;;;;;;5105812;28;20143;-54
2022/09/04 07:39:38;;;;;;;;;;;26.20;95.60;;;;;;5105740;28;20018;-55
2022/09/04 07:42:12;;;;;;;;;;;26.20;95.50;;;;;;5106036;28;19948;-53
2022/09/04 07:44:43;;;;;;;;;;;26.20;95.50;;;;;;5105751;28;19957;-53
2022/09/04 07:47:13;;;;;;;;;;;26.20;95.50;;;;;;5105724;28;19913;-53
2022/09/04 07:49:39;;;;;;;;;;;26.20;95.50;;;;;;5105872;28;19908;-51
2022/09/04 07:52:10;;;;;;;;;;;26.10;95.50;;;;;;5105404;28;19950;-52
2022/09/04 07:54:36;;;;;;;;;;;26.10;95.50;;;;;;5104816;28;19916;-58
2022/09/04 07:57:11;;;;;;;;;;;26.20;95.50;;;;;;5105266;28;19919;-51
2022/09/04 07:59:37;;;;;;;;;;;26.20;95.50;;;;;;5105515;28;19978;-55
2022/09/04 08:02:22;;;;;;;;;;;26.10;95.40;;;;;;5105444;28;19948;-52
2022/09/04 08:05:06;;;;;;;;;;;26.10;95.40;;;;;;5105659;28;19950;-53
2022/09/04 08:07:32;;;;;;;;;;;26.10;95.40;;;;;;5105538;28;20112;-51
2022/09/04 08:10:17;;;;;;;;;;;26.10;95.40;;;;;;5105563;28;19983;-53
2022/09/04 08:12:49;;;;;;;;;;;26.10;95.30;;;;;;5105262;28;19916;-53
2022/09/04 08:15:20;;;;;;;;;;;26.10;95.30;;;;;;5105190;28;20179;-54
2022/09/04 08:17:53;;;;;;;;;;;26.10;95.30;;;;;;5105090;28;19943;-56
2022/09/04 08:20:34;;;;;;;;;;;26.10;95.30;;;;;;5105180;28;19908;-57
2022/09/04 08:23:06;;;;;;;;;;;26.10;95.40;;;;;;5105078;28;19943;-55
2022/09/04 08:25:32;;;;;;;;;;;26.10;95.40;;;;;;5105182;28;19914;-56
2022/09/04 08:28:07;;;;;;;;;;;26.10;95.30;;;;;;5104990;28;20248;-56
2022/09/04 08:30:38;;;;;;;;;;;26.10;95.30;;;;;;5105203;28;19987;-56
2022/09/04 08:33:19;;;;;;;;;;;26.00;95.30;;;;;;5104707;28;19923;-60
2022/09/04 08:35:54;;;;;;;;;;;26.00;95.30;;;;;;5104746;28;19912;-51
2022/09/04 08:38:55;;;;;;;;;;;26.00;95.20;;;;;;5104696;28;19945;-57
2022/09/04 08:41:40;;;;;;;;;;;26.00;95.30;;;;;;5089915;28;19918;-53
2022/09/04 08:44:09;;;;;;;;;;;26.00;95.30;;;;;;5104672;28;20250;-54
2022/09/04 08:46:47;;;;;;;;;;;25.90;95.30;;;;;;5104613;28;19912;-54
2022/09/04 08:49:40;;;;;;;;;;;26.00;95.30;;;;;;5105001;28;19915;-52
2022/09/04 08:52:21;;;;;;;;;;;25.90;95.30;;;;;;5104480;28;20128;-54
2022/09/04 08:55:00;;;;;;;;;;;25.90;95.30;;;;;;5104927;28;19949;-60
2022/09/04 08:57:45;;;;;;;;;;;25.90;95.30;;;;;;5104814;28;19912;-53
2022/09/04 09:00:21;;;;;;;;;;;25.90;95.30;;;;;;5104734;28;19986;-50
2022/09/04 09:03:06;;;;;;;;;;;25.90;95.40;;;;;;5104385;28;19957;-52
2022/09/04 09:05:32;;;;;;;;;;;25.90;95.40;;;;;;5104672;28;19908;-54
2022/09/04 09:08:25;;;;;;;;;;;25.90;95.40;;;;;;5104084;28;19920;-57
2022/09/04 09:11:10;;;;;;;;;;;25.90;95.40;;;;;;5073637;28;20085;-52
2022/09/04 09:13:54;;;;;;;;;;;25.90;95.40;;;;;;5104548;28;20159;-51
2022/09/04 09:16:21;;;;;;;;;;;25.90;95.50;;;;;;5104360;28;20278;-55
2022/09/04 09:19:06;;;;;;;;;;;25.90;95.50;;;;;;5104479;28;19957;-52
2022/09/04 09:21:37;;;;;;;;;;;25.90;95.50;;;;;;5104170;28;20112;-53
2022/09/04 09:24:21;;;;;;;;;;;25.90;95.50;;;;;;5104171;28;20277;-54
2022/09/04 09:27:06;;;;;;;;;;;25.90;95.60;;;;;;5104166;28;19950;-52
2022/09/04 09:29:52;;;;;;;;;;;25.90;95.60;;;;;;5104280;28;19975;-53
2022/09/04 09:32:37;;;;;;;;;;;25.90;95.60;;;;;;5089859;28;19987;-52
2022/09/04 09:35:12;;;;;;;;;;;25.90;95.60;;;;;;5104294;28;19915;-54
2022/09/04 09:37:58;;;;;;;;;;;25.80;95.60;;;;;;5104400;28;19919;-52
2022/09/04 09:40:43;;;;;;;;;;;25.80;95.90;;;;;;5104233;28;20121;-54
2022/09/04 09:43:20;;;;;;;;;;;25.80;95.70;;;;;;5104029;28;20034;-51
2022/09/04 09:45:49;;;;;;;;;;;25.90;95.70;;;;;;5104360;28;20101;-53
2022/09/04 09:48:27;;;;;;;;;;;25.90;95.70;;;;;;5104140;28;20166;-54
2022/09/04 09:51:12;;;;;;;;;;;25.80;95.70;;;;;;5104351;28;20096;-54
2022/09/04 09:53:51;;;;;;;;;;;25.90;95.70;;;;;;5103884;28;19923;-52
2022/09/04 09:56:50;;;;;;;;;;;25.90;95.70;;;;;;5103856;28;19912;-51
2022/09/04 09:59:35;;;;;;;;;;;25.90;95.80;;;;;;5060101;28;20089;-52
2022/09/04 10:02:19;;;;;;;;;;;25.80;95.80;;;;;;5103880;28;19990;-53
2022/09/04 10:05:05;;;;;;;;;;;25.80;95.80;;;;;;5103989;28;19956;-51
2022/09/04 10:07:42;;;;;;;;;;;25.80;95.80;;;;;;5103687;28;19912;-52
2022/09/04 10:10:26;;;;;;;;;;;25.80;95.80;;;;;;5104124;28;19915;-52
2022/09/04 10:13:01;;;;;;;;;;;25.80;95.90;;;;;;5103644;28;19916;-52
2022/09/04 10:15:28;;;;;;;;;;;25.80;95.90;;;;;;5103813;28;19916;-53
2022/09/04 10:17:57;;;;;;;;;;;25.80;95.80;;;;;;5104152;28;20223;-51
2022/09/04 10:20:33;;;;;;;;;;;25.80;95.80;;;;;;5107550;28;19983;-57
2022/09/04 10:23:17;;;;;;;;;;;25.80;95.80;;;;;;5107227;28;19919;-53
2022/09/04 10:26:02;;;;;;;;;;;25.80;95.80;;;;;;5107569;28;19982;-52
2022/09/04 10:28:38;;;;;;;;;;;25.80;95.70;;;;;;5107076;28;19912;-55
2022/09/04 10:31:17;;;;;;;;;;;25.80;95.70;;;;;;5107581;28;19912;-53
2022/09/04 10:33:53;;;;;;;;;;;25.80;95.70;;;;;;5107097;28;19916;-54
2022/09/04 10:36:37;;;;;;;;;;;25.70;95.70;;;;;;5107433;28;19920;-53
2022/09/04 10:42:10;;;;;;;;;;;25.80;95.80;;;;;;5107014;28;19919;-54
2022/09/04 10:44:43;;;;;;;;;;;25.70;95.80;;;;;;5106953;28;20019;-62
2022/09/04 10:47:27;;;;;;;;;;;25.80;95.80;;;;;;5106908;28;20192;-53
2022/09/04 10:50:12;;;;;;;;;;;25.70;95.80;;;;;;5106888;28;19908;-55
2022/09/04 10:52:50;;;;;;;;;;;25.70;95.80;;;;;;5106700;28;19916;-55
2022/09/04 10:55:35;;;;;;;;;;;25.70;95.80;;;;;;5106963;28;19916;-55
2022/09/04 10:58:19;;;;;;;;;;;25.70;95.80;;;;;;5106631;28;19919;-56
2022/09/04 11:01:04;;;;;;;;;;;25.70;95.80;;;;;;5106920;28;19946;-53
2022/09/04 11:03:36;;;;;;;;;;;25.70;95.80;;;;;;5106439;28;19982;-54
2022/09/04 11:06:03;;;;;;;;;;;25.70;95.80;;;;;;5106915;28;19912;-54
2022/09/04 11:08:34;;;;;;;;;;;25.70;95.80;;;;;;5106464;28;19919;-54
2022/09/04 11:11:01;;;;;;;;;;;25.70;95.90;;;;;;5106618;28;19904;-53
2022/09/04 11:13:50;;;;;;;;;;;25.70;95.90;;;;;;5106198;28;20175;-54
2022/09/04 11:16:22;;;;;;;;;;;25.70;95.90;;;;;;5095338;28;19927;-58
2022/09/04 11:18:52;;;;;;;;;;;25.70;96.00;;;;;;5106171;28;20130;-60
2022/09/04 11:21:31;;;;;;;;;;;25.70;96.00;;;;;;5106032;28;19920;-58
2022/09/04 11:23:57;;;;;;;;;;;25.80;96.10;;;;;;5106019;28;20078;-56
2022/09/04 11:26:36;;;;;;;;;;;25.80;96.20;;;;;;5106185;28;19912;-53
2022/09/04 11:29:02;;;;;;;;;;;25.80;96.20;;;;;;5105758;28;19945;-54
2022/09/04 11:31:47;;;;;;;;;;;25.80;96.20;;;;;;5105930;28;19912;-54
2022/09/04 11:34:18;;;;;;;;;;;25.80;96.30;;;;;;5105890;28;20241;-55
2022/09/04 11:36:47;;;;;;;;;;;25.80;96.30;;;;;;5105834;28;19986;-56
2022/09/04 11:39:19;;;;;;;;;;;25.80;96.40;;;;;;5105751;28;19908;-57
2022/09/04 11:41:51;;;;;;;;;;;25.80;96.50;;;;;;5105970;28;20216;-54
2022/09/04 11:44:36;;;;;;;;;;;25.90;96.50;;;;;;5105857;28;19908;-54
2022/09/04 11:47:10;;;;;;;;;;;25.90;96.50;;;;;;5105368;28;20100;-56
2022/09/04 11:49:55;;;;;;;;;;;25.80;96.40;;;;;;5105549;28;19908;-56
2022/09/04 11:52:40;;;;;;;;;;;25.80;96.50;;;;;;5105596;28;19912;-58
2022/09/04 11:55:08;;;;;;;;;;;25.80;96.40;;;;;;5105558;28;19908;-54
2022/09/04 11:57:53;;;;;;;;;;;25.80;96.50;;;;;;5105754;28;19908;-57
2022/09/04 12:00:19;;;;;;;;;;;25.80;96.60;;;;;;5105506;28;20188;-54
2022/09/04 12:03:04;;;;;;;;;;;25.80;96.50;;;;;;5105415;28;19946;-53
2022/09/04 12:05:44;;;;;;;;;;;25.80;96.50;;;;;;5105513;28;19908;-53
2022/09/04 12:08:19;;;;;;;;;;;25.90;96.50;;;;;;5105277;28;19908;-56
2022/09/04 12:10:46;;;;;;;;;;;25.90;96.50;;;;;;5105774;28;19915;-52
2022/09/04 12:13:13;;;;;;;;;;;25.90;96.40;;;;;;5105120;28;19959;-54
2022/09/04 12:15:53;;;;;;;;;;;25.80;96.30;;;;;;5105247;28;19923;-53
2022/09/04 12:18:35;;;;;;;;;;;25.80;96.30;;;;;;5104947;28;19912;-55
2022/09/04 12:21:20;;;;;;;;;;;25.80;96.20;;;;;;5105527;28;19935;-55
2022/09/04 12:23:59;;;;;;;;;;;25.90;96.20;;;;;;5105302;28;20192;-54
2022/09/04 12:26:55;;;;;;;;;;;25.80;96.20;;;;;;5104954;28;19999;-54
2022/09/04 12:29:23;;;;;;;;;;;25.90;96.20;;;;;;5033180;28;19909;-55
2022/09/04 12:31:50;;;;;;;;;;;25.90;96.20;;;;;;5104788;28;20029;-54
2022/09/04 12:34:17;;;;;;;;;;;25.90;96.20;;;;;;5104779;28;19912;-54
2022/09/04 12:36:58;;;;;;;;;;;25.90;96.30;;;;;;5104810;28;19909;-57
2022/09/04 12:39:41;;;;;;;;;;;25.90;96.30;;;;;;5104809;28;19916;-57
2022/09/04 12:42:15;;;;;;;;;;;25.90;96.40;;;;;;5104221;28;19908;-55
2022/09/04 12:44:49;;;;;;;;;;;25.90;96.40;;;;;;5104464;28;19908;-55
2022/09/04 12:47:27;;;;;;;;;;;26.00;96.60;;;;;;5104694;28;19908;-53
2022/09/04 12:49:59;;;;;;;;;;;25.90;96.40;;;;;;5104661;28;19908;-55
2022/09/04 12:52:43;;;;;;;;;;;26.00;96.40;;;;;;5104647;28;20210;-55
2022/09/04 12:55:13;;;;;;;;;;;26.00;96.50;;;;;;5104740;28;20096;-56
2022/09/04 12:57:45;;;;;;;;;;;26.10;96.50;;;;;;5104517;28;19908;-55
2022/09/04 13:00:15;;;;;;;;;;;26.00;96.50;;;;;;5104615;28;19909;-55
2022/09/04 13:02:50;;;;;;;;;;;26.10;96.60;;;;;;5104161;28;20172;-53
2022/09/04 13:05:35;;;;;;;;;;;26.10;96.50;;;;;;5104752;28;20175;-60
2022/09/04 13:08:10;;;;;;;;;;;26.10;96.40;;;;;;5104397;28;19912;-53
2022/09/04 13:10:48;;;;;;;;;;;26.10;96.40;;;;;;5104745;28;19908;-52
2022/09/04 13:13:23;;;;;;;;;;;26.10;96.40;;;;;;5104188;28;19923;-55
2022/09/04 13:16:07;;;;;;;;;;;26.20;96.40;;;;;;5104320;28;19923;-54
2022/09/04 13:18:33;;;;;;;;;;;26.20;96.40;;;;;;5104233;28;19985;-57
2022/09/04 13:20:59;;;;;;;;;;;26.20;96.40;;;;;;5104762;28;19908;-54
2022/09/04 13:23:34;;;;;;;;;;;26.30;96.30;;;;;;5104108;28;19908;-56
2022/09/04 13:26:19;;;;;;;;;;;26.30;96.30;;;;;;5104667;28;19908;-54
2022/09/04 13:28:55;;;;;;;;;;;26.30;96.30;;;;;;5104094;28;19935;-55
2022/09/04 13:31:37;;;;;;;;;;;26.30;96.30;;;;;;5104321;28;19919;-55
2022/09/04 13:34:12;;;;;;;;;;;26.30;96.20;;;;;;5104125;28;19912;-53
2022/09/04 13:36:48;;;;;;;;;;;26.30;96.10;;;;;;5104247;28;20144;-54
2022/09/04 13:39:22;;;;;;;;;;;26.30;95.80;;;;;;5104190;28;19908;-52
2022/09/04 13:41:51;;;;;;;;;;;26.30;95.80;;;;;;5104240;28;19912;-53
2022/09/04 13:44:37;;;;;;;;;;;26.40;95.90;;;;;;5104173;28;20084;-56
2022/09/04 13:47:03;;;;;;;;;;;26.40;95.80;;;;;;5103987;28;20128;-55
2022/09/04 13:49:38;;;;;;;;;;;26.40;95.80;;;;;;5104115;28;19908;-54
2022/09/04 13:52:07;;;;;;;;;;;26.50;95.80;;;;;;5104477;28;19928;-61
2022/09/04 13:54:35;;;;;;;;;;;26.40;95.80;;;;;;5108298;28;20181;-54
2022/09/04 13:57:13;;;;;;;;;;;26.50;95.90;;;;;;5107764;28;19912;-55
2022/09/04 13:59:40;;;;;;;;;;;26.50;95.70;;;;;;5107964;28;19915;-54
2022/09/04 14:02:08;;;;;;;;;;;26.50;95.70;;;;;;5107807;28;20254;-56
2022/09/04 14:04:38;;;;;;;;;;;26.50;95.70;;;;;;5107596;28;19908;-53
2022/09/04 14:07:07;;;;;;;;;;;26.50;95.70;;;;;;5107675;28;19931;-58
2022/09/04 14:09:37;;;;;;;;;;;26.50;95.70;;;;;;5107818;28;20127;-54
2022/09/04 14:12:24;;;;;;;;;;;26.50;95.70;;;;;;5107792;28;19986;-53
2022/09/04 14:15:01;;;;;;;;;;;26.50;95.60;;;;;;5093909;28;19909;-52
2022/09/04 14:17:54;;;;;;;;;;;26.60;95.60;;;;;;5107459;28;19990;-55
2022/09/04 14:20:27;;;;;;;;;;;26.50;95.60;;;;;;5103314;28;19915;-55
2022/09/04 14:22:57;;;;;;;;;;;26.60;95.60;;;;;;5107469;28;20214;-56
2022/09/04 14:25:41;;;;;;;;;;;26.50;95.50;;;;;;5107612;28;19909;-56
2022/09/04 14:28:11;;;;;;;;;;;26.50;95.40;;;;;;5107406;28;19912;-53
2022/09/04 14:30:50;;;;;;;;;;;26.60;95.30;;;;;;5107652;28;19975;-56
2022/09/04 14:33:23;;;;;;;;;;;26.60;95.20;;;;;;5107291;28;19916;-54
2022/09/04 14:35:55;;;;;;;;;;;26.60;95.30;;;;;;5107583;28;19912;-53
2022/09/04 14:38:28;;;;;;;;;;;26.60;95.00;;;;;;5107006;28;20167;-57
2022/09/04 14:40:55;;;;;;;;;;;26.60;95.00;;;;;;5107447;28;19908;-53
2022/09/04 14:43:40;;;;;;;;;;;26.70;94.90;;;;;;5106867;28;19961;-51
2022/09/04 14:46:27;;;;;;;;;;;26.60;94.80;;;;;;5107409;28;19908;-59
2022/09/04 14:49:05;;;;;;;;;;;26.60;94.70;;;;;;5106558;28;19958;-54
2022/09/04 14:51:39;;;;;;;;;;;26.70;94.60;;;;;;5106781;28;19962;-51
2022/09/04 14:54:06;;;;;;;;;;;26.70;94.30;;;;;;5106759;28;19994;-55
2022/09/04 14:56:49;;;;;;;;;;;26.70;94.30;;;;;;5106851;28;19912;-56
2022/09/04 14:59:33;;;;;;;;;;;26.70;94.30;;;;;;5106561;28;19936;-55
2022/09/04 15:02:12;;;;;;;;;;;26.70;94.10;;;;;;5106468;28;20200;-57
2022/09/04 15:04:57;;;;;;;;;;;26.70;94.20;;;;;;5105617;28;20138;-55
2022/09/04 15:07:45;;;;;;;;;;;26.70;94.20;;;;;;5106573;28;19912;-54
2022/09/04 15:10:23;;;;;;;;;;;26.80;94.30;;;;;;5093723;28;20125;-53
2022/09/04 15:12:55;;;;;;;;;;;26.80;94.20;;;;;;5106502;28;19938;-53
2022/09/04 15:15:30;;;;;;;;;;;26.80;94.00;;;;;;5106456;28;19918;-54